地図

経路データ

SID SEASON NUMBER BASIN SUBBASIN NAME ISO_TIME NATURE LAT LON WMO_WIND WMO_PRES WMO_AGENCY TRACK_TYPE DIST2LAND LANDFALL IFLAG USA_AGENCY USA_ATCF_ID USA_LAT USA_LON USA_RECORD USA_STATUS USA_WIND USA_PRES USA_SSHS USA_R34_NE USA_R34_SE USA_R34_SW USA_R34_NW USA_R50_NE USA_R50_SE USA_R50_SW USA_R50_NW USA_R64_NE USA_R64_SE USA_R64_SW USA_R64_NW USA_POCI USA_ROCI USA_RMW USA_EYE TOKYO_LAT TOKYO_LON TOKYO_GRADE TOKYO_WIND TOKYO_PRES TOKYO_R50_DIR TOKYO_R50_LONG TOKYO_R50_SHORT TOKYO_R30_DIR TOKYO_R30_LONG TOKYO_R30_SHORT TOKYO_LAND CMA_LAT CMA_LON CMA_CAT CMA_WIND CMA_PRES HKO_LAT HKO_LON HKO_CAT HKO_WIND HKO_PRES NEWDELHI_LAT NEWDELHI_LON NEWDELHI_GRADE NEWDELHI_WIND NEWDELHI_PRES NEWDELHI_CI NEWDELHI_DP NEWDELHI_POCI REUNION_LAT REUNION_LON REUNION_TYPE REUNION_WIND REUNION_PRES REUNION_TNUM REUNION_CI REUNION_RMW REUNION_R34_NE REUNION_R34_SE REUNION_R34_SW REUNION_R34_NW REUNION_R50_NE REUNION_R50_SE REUNION_R50_SW REUNION_R50_NW REUNION_R64_NE REUNION_R64_SE REUNION_R64_SW REUNION_R64_NW BOM_LAT BOM_LON BOM_TYPE BOM_WIND BOM_PRES BOM_TNUM BOM_CI BOM_RMW BOM_R34_NE BOM_R34_SE BOM_R34_SW BOM_R34_NW BOM_R50_NE BOM_R50_SE BOM_R50_SW BOM_R50_NW BOM_R64_NE BOM_R64_SE BOM_R64_SW BOM_R64_NW BOM_ROCI BOM_POCI BOM_EYE BOM_POS_METHOD BOM_PRES_METHOD NADI_LAT NADI_LON NADI_CAT NADI_WIND NADI_PRES WELLINGTON_LAT WELLINGTON_LON WELLINGTON_WIND WELLINGTON_PRES DS824_LAT DS824_LON DS824_STAGE DS824_WIND DS824_PRES TD9636_LAT TD9636_LON TD9636_STAGE TD9636_WIND TD9636_PRES TD9635_LAT TD9635_LON TD9635_WIND TD9635_PRES TD9635_ROCI NEUMANN_LAT NEUMANN_LON NEUMANN_CLASS NEUMANN_WIND NEUMANN_PRES MLC_LAT MLC_LON MLC_CLASS MLC_WIND MLC_PRES USA_GUST BOM_GUST BOM_GUST_PER REUNION_GUST REUNION_GUST_PER USA_SEAHGT USA_SEARAD_NE USA_SEARAD_SE USA_SEARAD_SW USA_SEARAD_NW STORM_SPEED STORM_DIR
1970275N16137 1970 126 WP MM NOT_NAMED 1970-10-01 12:00:00 TS 16.0000 137.000 main 1311 1295 __O___________ -1 16.0000 137.000 0 1008 12 329
1970275N16137 1970 126 WP MM NOT_NAMED 1970-10-01 15:00:00 TS 16.5251 136.668 main 1299 1280 __P___________ -1 16.5251 136.668 0 1008 12 326
1970275N16137 1970 126 WP MM NOT_NAMED 1970-10-01 18:00:00 TS 17.0000 136.300 main 1280 1255 __O___________ -1 17.0000 136.300 0 1008 12 319
1970275N16137 1970 126 WP MM NOT_NAMED 1970-10-01 21:00:00 TS 17.3874 135.872 main 1260 1228 __P___________ -1 17.3874 135.872 0 1008 11 309
1970275N16137 1970 126 WP MM NOT_NAMED 1970-10-02 00:00:00 TS 17.7000 135.400 main 1228 1203 __O___________ -1 17.7000 135.400 0 1008 11 303
1970275N16137 1970 126 WP MM NOT_NAMED 1970-10-02 03:00:00 TS 17.9647 134.930 main 1199 1167 __P___________ -1 17.9647 134.930 0 1008 11 298
1970275N16137 1970 126 WP MM NOT_NAMED 1970-10-02 06:00:00 TS 18.2000 134.400 main 1167 1123 __O___________ -1 18.2000 134.400 0 1008 12 294
1970275N16137 1970 126 WP MM NOT_NAMED 1970-10-02 09:00:00 TS 18.4499 133.780 main 1123 1072 __P___________ -1 18.4499 133.780 0 1008 13 292
1970275N16137 1970 126 WP MM NOT_NAMED 1970-10-02 12:00:00 TS 18.7000 133.100 main 1072 1020 __O___________ -1 18.7000 133.100 0 19 1008 14 290
1970275N16137 1970 126 WP MM NOT_NAMED 1970-10-02 15:00:00 TS 18.9350 132.392 main 1020 978 __P___________ -1 18.9350 132.392 0 19 1007 14 291
1970275N16137 1970 126 WP MM NOT_NAMED 1970-10-02 18:00:00 TS 19.2000 131.700 main 978 933 __O___________ -1 19.2000 131.700 0 19 1006 14 296
1970275N16137 1970 126 WP MM NOT_NAMED 1970-10-02 21:00:00 TS 19.5496 131.085 main 933 877 __P___________ -1 19.5496 131.085 0 19 1006 13 302
1970275N16137 1970 126 WP MM NOT_NAMED 1970-10-03 00:00:00 TS 19.9000 130.500 main 877 820 __O___________ -1 19.9000 130.500 0 19 1006 13 298
1970275N16137 1970 126 WP MM NOT_NAMED 1970-10-03 03:00:00 TS 20.1423 129.899 main 820 767 __P___________ -1 20.1423 129.899 0 19 1005 12 294
1970275N16137 1970 126 WP MM NOT_NAMED 1970-10-03 06:00:00 TS 20.4000 129.300 main 767 718 __O___________ -1 20.4000 129.300 0 19 1004 14 298
1970275N16137 1970 126 WP MM NOT_NAMED 1970-10-03 09:00:00 TS 20.7778 128.626 main 712 682 __P___________ -1 20.7778 128.626 0 21 1003 14 305
1970275N16137 1970 126 WP MM NOT_NAMED 1970-10-03 12:00:00 TS 21.2000 128.100 main 682 674 __O___________ -1 21.2000 128.100 1 23 1002 11 320
1970275N16137 1970 126 WP MM NOT_NAMED 1970-10-03 15:00:00 TS 21.5846 127.895 main 685 673 __P___________ -1 21.5846 127.895 1 23 1002 8 347
1970275N16137 1970 126 WP MM NOT_NAMED 1970-10-03 18:00:00 TS 22.0000 127.900 main 673 655 __O___________ -1 22.0000 127.900 1 23 1002 9 0
1970275N16137 1970 126 WP MM NOT_NAMED 1970-10-03 21:00:00 TS 22.4396 127.896 main 655 643 __P___________ -1 22.4396 127.896 1 23 1002 10 11
1970275N16137 1970 126 WP MM NOT_NAMED 1970-10-04 00:00:00 TS 23.0000 128.100 main 652 649 __O___________ -1 23.0000 128.100 1 23 1002 15 26
1970275N16137 1970 126 WP MM NOT_NAMED 1970-10-04 03:00:00 TS 23.7703 128.617 main 681 681 __P___________ -1 23.7703 128.617 1 26 1002 19 34
1970275N16137 1970 126 WP MM NOT_NAMED 1970-10-04 06:00:00 TS 24.6000 129.300 main 727 652 __O___________ -1 24.6000 129.300 1 29 1002 19 37
1970275N16137 1970 126 WP MM NOT_NAMED 1970-10-04 09:00:00 TS 25.2839 129.885 main 641 558 __P___________ -1 25.2839 129.885 1 29 1002 18 40
1970275N16137 1970 126 WP MM NOT_NAMED 1970-10-04 12:00:00 TS 26.0000 130.600 main 558 475 __O___________ -1 26.0000 130.600 1 29 1002 22 43
1970275N16137 1970 126 WP MM NOT_NAMED 1970-10-04 15:00:00 TS 26.8851 131.575 main 465 411 __P___________ -1 26.8851 131.575 1 29 1002 26 46
1970275N16137 1970 126 WP MM NOT_NAMED 1970-10-04 18:00:00 ET 27.8000 132.700 main 406 381 __O___________ -1 27.8000 132.700 9 29 1002 27 48
1970275N16137 1970 126 WP MM NOT_NAMED 1970-10-04 21:00:00 ET 28.6818 133.835 main 379 379 __P___________ -1 28.6818 133.835 9 29 1001 26 52
1970275N16137 1970 126 WP MM NOT_NAMED 1970-10-05 00:00:00 ET 29.4000 135.000 main 410 390 __O___________ -1 29.4000 135.000 9 29 1000 24 59
1970275N16137 1970 126 WP MM NOT_NAMED 1970-10-05 03:00:00 ET 29.8993 136.165 main 392 380 __P___________ -1 29.8993 136.165 9 33 1000 21 71
1970275N16137 1970 126 WP MM NOT_NAMED 1970-10-05 06:00:00 ET 30.1000 137.300 main 394 394 __O___________ -1 30.1000 137.300 9 38 1000 19 87
1970275N16137 1970 126 WP MM NOT_NAMED 1970-10-05 09:00:00 ET 29.9972 138.412 main 451 451 __P___________ -1 29.9972 138.412 9 33 1002 19 102
1970275N16137 1970 126 WP MM NOT_NAMED 1970-10-05 12:00:00 ET 29.7000 139.400 main 535 535 __O___________ -1 29.7000 139.400 9 29 1004 17 111
1970275N16137 1970 126 WP MM NOT_NAMED 1970-10-05 15:00:00 ET 29.4062 140.195 main 594 594 __P___________ -1 29.4062 140.195 9 26 1005 14 115
1970275N16137 1970 126 WP MM NOT_NAMED 1970-10-05 18:00:00 ET 29.1000 140.900 main 644 644 __O___________ -1 29.1000 140.900 9 23 1006 14 114
1970275N16137 1970 126 WP MM NOT_NAMED 1970-10-05 21:00:00 ET 28.8363 141.636 main 698 698 __P___________ -1 28.8363 141.636 9 21 1007 14 111
1970275N16137 1970 126 WP MM NOT_NAMED 1970-10-06 00:00:00 ET 28.6000 142.400 main 741 __O___________ -1 28.6000 142.400 9 19 1008 14 109

デジタル台風データ・検索

IBTrACS Databaseについて

本データベースは、米国NOAAが公開する1842年以降の世界の熱帯低気圧のベストトラックデータアーカイブInternational Best Track Archive for Climate Stewardship (IBTrACS)を、ウェブで閲覧しやすい形式に変換したものです。

最終更新日:2021-11-26